aviador You're here:

PASM Decoded Metar

SAINT MARYS in AK, USA
Report Time2018-05-27 01:02:00
UTC Time2018-05-27 01:27:18
Flight Rules mvfr MVFR
Wind310° at 15 kt
W.Decomp.*RWY 35: 9.2 kt HW 11.8 kt LCW
RWY 24: 7.9 kt HW 12.7 kt RCW
W.Rank310° ranks 17
Current wind is above 310° avg. (8.2)
Visibility9999 m
Phenomena:N/A
Clouds:Broken 020 Hf
Overcast 027 Hf
Expected CloudBase > 1,600 ft AGL from Temp-Dew spread
Ceiling2,000 ft
Temp04°C (ISA -10)
Dew Point00°C (75% RH)
AAT-3.4°C
QNH1010 hPa
Density Alt-771 ft
Elevation302 ft
Report Wrong Elevation
Raw Report
PASM 270102Z AUTO 31015KT 10SM BKN020 OVC027 04/00 A2983 RMK AO2
SLP120 T00440000=

Extra information for PASM:More info

Metar Taf Metar & Taf Last 4 Metars F.Rules Stats Wind Profile Meteogram Temp Stats Airport Information Weather charts Add Link Nearby VenuesMetar ALERT Operation Metar Decoded Social comments

AIRNAV info for PASM